createdAt,value
2023-01-19T00:00:52.113Z,2.39
2023-01-19T00:03:19.241Z,2.37
2023-01-19T00:05:46.565Z,2.34
2023-01-19T00:08:16.782Z,2.36
2023-01-19T00:10:45.562Z,2.37
2023-01-19T00:13:13.112Z,2.34
2023-01-19T00:15:40.214Z,2.36
2023-01-19T00:18:09.044Z,2.35
2023-01-19T00:20:36.777Z,2.39
2023-01-19T00:23:04.677Z,2.39
2023-01-19T00:25:31.940Z,2.39
2023-01-19T00:28:01.358Z,2.36
2023-01-19T00:30:29.327Z,2.36
2023-01-19T00:32:56.760Z,2.38
2023-01-19T00:35:23.843Z,2.34
2023-01-19T00:37:51.193Z,2.34
2023-01-19T00:40:18.308Z,2.25
2023-01-19T00:42:45.433Z,2.22
2023-01-19T00:45:22.970Z,2.17
2023-01-19T00:47:56.989Z,2.10
2023-01-19T00:50:24.977Z,2.04
2023-01-19T00:52:53.108Z,1.93
2023-01-19T00:55:20.854Z,1.93
2023-01-19T00:57:47.898Z,1.89
2023-01-19T01:00:17.586Z,2.18
2023-01-19T01:02:44.865Z,2.11
2023-01-19T01:05:12.353Z,2.02
2023-01-19T01:07:44.649Z,1.86
2023-01-19T01:10:11.736Z,1.89
2023-01-19T01:12:39.227Z,1.86
2023-01-19T01:15:07.536Z,1.82
2023-01-19T01:17:34.606Z,1.83
2023-01-19T01:20:01.599Z,1.83
2023-01-19T01:22:28.712Z,1.87
2023-01-19T01:24:55.865Z,1.93
2023-01-19T01:27:22.906Z,1.94
2023-01-19T01:29:49.938Z,1.95
2023-01-19T01:32:16.966Z,1.96
2023-01-19T01:34:44.161Z,1.99
2023-01-19T01:37:11.473Z,2.00
2023-01-19T01:39:38.737Z,2.02
2023-01-19T01:42:14.530Z,2.06
2023-01-19T01:44:54.389Z,2.10
2023-01-19T01:47:24.376Z,2.14
2023-01-19T01:50:01.396Z,2.15
2023-01-19T01:52:31.284Z,2.17
2023-01-19T01:55:00.602Z,2.16
2023-01-19T01:57:29.503Z,2.16
2023-01-19T01:59:59.945Z,2.16
2023-01-19T02:02:50.420Z,2.17
2023-01-19T02:05:25.005Z,2.17
2023-01-19T02:08:22.401Z,2.19
2023-01-19T02:11:12.981Z,2.12
2023-01-19T02:13:44.010Z,2.08
2023-01-19T02:16:13.927Z,2.06
2023-01-19T02:18:43.034Z,2.01
2023-01-19T02:21:23.496Z,2.00
2023-01-19T02:23:53.487Z,1.99
2023-01-19T02:26:24.839Z,1.98
2023-01-19T02:28:59.561Z,1.93
2023-01-19T02:31:30.553Z,1.86
2023-01-19T02:33:58.356Z,1.79
2023-01-19T02:36:35.310Z,1.77
2023-01-19T02:39:05.493Z,1.74
2023-01-19T02:41:37.152Z,1.71
2023-01-19T02:44:08.683Z,1.70
2023-01-19T02:46:38.180Z,1.69
2023-01-19T02:49:06.301Z,1.68
2023-01-19T02:51:34.794Z,1.68
2023-01-19T02:54:10.953Z,1.65
2023-01-19T02:56:47.466Z,1.64
2023-01-19T02:59:19.064Z,1.64
2023-01-19T03:01:58.908Z,1.60
2023-01-19T03:04:50.359Z,1.62
2023-01-19T03:07:28.270Z,1.64
2023-01-19T03:09:59.039Z,1.74
2023-01-19T03:12:36.958Z,1.70
2023-01-19T03:15:10.021Z,1.75
2023-01-19T03:17:38.641Z,1.75
2023-01-19T03:20:10.865Z,1.69
2023-01-19T03:22:38.796Z,1.65
2023-01-19T03:25:06.770Z,1.62
2023-01-19T03:27:40.834Z,1.65
2023-01-19T03:30:11.469Z,1.69
2023-01-19T03:32:46.371Z,1.71
2023-01-19T03:35:14.812Z,1.70
2023-01-19T03:37:45.300Z,1.77
2023-01-19T03:40:13.224Z,1.77
2023-01-19T03:42:42.827Z,1.87
2023-01-19T03:45:11.631Z,1.83
2023-01-19T03:47:40.741Z,1.82
2023-01-19T03:50:12.082Z,1.84
2023-01-19T03:52:39.311Z,1.85
2023-01-19T03:55:07.162Z,1.85
2023-01-19T03:57:35.644Z,1.87
2023-01-19T04:00:04.602Z,1.89
2023-01-19T04:02:40.432Z,1.94
2023-01-19T04:05:09.755Z,2.04
2023-01-19T04:07:38.289Z,2.20
2023-01-19T04:10:07.175Z,2.15
2023-01-19T04:12:37.201Z,2.08
2023-01-19T04:15:08.098Z,2.10
2023-01-19T04:17:36.897Z,2.08
2023-01-19T04:20:06.943Z,2.08
2023-01-19T04:22:37.657Z,2.02
2023-01-19T04:25:07.174Z,2.06
2023-01-19T04:27:35.697Z,2.16
2023-01-19T04:30:04.635Z,2.29
2023-01-19T04:32:32.536Z,2.31
2023-01-19T04:35:00.167Z,2.28
2023-01-19T04:37:28.311Z,2.24
2023-01-19T04:39:57.221Z,2.21
2023-01-19T04:42:25.289Z,2.26
2023-01-19T04:44:53.835Z,2.30
2023-01-19T04:47:22.663Z,2.26
2023-01-19T04:49:50.299Z,2.29
2023-01-19T04:52:18.247Z,2.40
2023-01-19T04:54:46.831Z,2.49
2023-01-19T04:57:15.757Z,2.37
2023-01-19T04:59:43.403Z,2.37
2023-01-19T05:02:12.695Z,2.33
2023-01-19T05:04:40.793Z,2.32
2023-01-19T05:07:08.674Z,2.36
2023-01-19T05:09:36.137Z,2.29
2023-01-19T05:12:04.823Z,2.29
2023-01-19T05:14:32.965Z,2.29
2023-01-19T05:17:03.539Z,2.28
2023-01-19T05:19:33.041Z,2.29
2023-01-19T05:22:02.408Z,2.34
2023-01-19T05:24:30.985Z,2.51
2023-01-19T05:26:58.174Z,2.50
2023-01-19T05:29:25.273Z,2.48
2023-01-19T05:31:54.268Z,2.50
2023-01-19T05:34:21.850Z,2.44
2023-01-19T05:36:49.604Z,2.55
2023-01-19T05:39:16.951Z,2.38
2023-01-19T05:41:48.315Z,2.57
2023-01-19T05:44:16.426Z,2.48
2023-01-19T05:46:44.745Z,2.47
2023-01-19T05:49:12.165Z,2.32
2023-01-19T05:51:40.515Z,2.29
2023-01-19T05:54:10.107Z,2.23
2023-01-19T05:56:41.045Z,2.24
2023-01-19T05:59:08.329Z,2.23
2023-01-19T06:01:42.012Z,2.28
2023-01-19T06:04:10.618Z,2.41
2023-01-19T06:06:37.751Z,2.35
2023-01-19T06:09:05.020Z,2.37
2023-01-19T06:11:38.394Z,2.51
2023-01-19T06:14:51.204Z,2.48
2023-01-19T06:17:25.385Z,2.54
2023-01-19T06:19:52.673Z,2.62
2023-01-19T06:22:22.701Z,2.50
2023-01-19T06:24:54.654Z,2.48
2023-01-19T06:27:23.844Z,2.47
2023-01-19T06:34:54.069Z,2.46
2023-01-19T06:37:44.160Z,2.55
2023-01-19T06:40:13.606Z,2.50
2023-01-19T06:42:41.573Z,2.47
2023-01-19T06:45:15.881Z,2.39
2023-01-19T06:47:47.374Z,2.36
2023-01-19T06:50:37.063Z,2.31
2023-01-19T06:53:05.428Z,2.33
2023-01-19T06:55:34.937Z,2.37
2023-01-19T06:58:02.147Z,2.47
2023-01-19T07:00:29.601Z,2.36
2023-01-19T07:03:06.228Z,2.40
2023-01-19T07:05:34.738Z,2.44
2023-01-19T07:08:02.207Z,2.42
2023-01-19T07:11:22.348Z,2.33
2023-01-19T07:13:16.492Z,2.42
2023-01-19T07:15:44.281Z,2.39
2023-01-19T07:18:11.373Z,2.40
2023-01-19T07:20:38.551Z,2.42
2023-01-19T07:23:05.957Z,2.40
2023-01-19T07:25:33.038Z,2.35
2023-01-19T07:28:01.904Z,2.41
2023-01-19T07:30:29.124Z,2.39
2023-01-19T07:33:05.742Z,2.36
2023-01-19T07:35:32.893Z,2.45
2023-01-19T07:38:01.347Z,2.52
2023-01-19T07:40:29.512Z,2.54
2023-01-19T07:42:57.375Z,2.67
2023-01-19T07:45:24.975Z,2.66
2023-01-19T07:47:53.142Z,2.73
2023-01-19T07:50:25.594Z,2.70
2023-01-19T07:52:53.346Z,2.71
2023-01-19T07:55:21.141Z,2.73
2023-01-19T07:57:50.881Z,2.69
2023-01-19T08:00:21.731Z,2.73
2023-01-19T08:02:51.196Z,2.67
2023-01-19T08:05:18.985Z,2.66
2023-01-19T08:07:46.317Z,2.61
2023-01-19T08:10:14.372Z,2.57
2023-01-19T08:12:42.516Z,2.57
2023-01-19T08:15:10.415Z,2.50
2023-01-19T08:17:37.818Z,2.54
2023-01-19T08:20:05.179Z,2.47
2023-01-19T08:22:32.282Z,2.60
2023-01-19T08:24:59.344Z,2.55
2023-01-19T08:27:26.357Z,2.55
2023-01-19T08:29:54.627Z,2.57
2023-01-19T08:32:21.822Z,2.56
2023-01-19T08:34:49.117Z,2.56
2023-01-19T08:37:16.196Z,2.64
2023-01-19T08:39:43.520Z,2.80
2023-01-19T08:42:10.633Z,2.86
2023-01-19T08:44:41.440Z,2.73
2023-01-19T08:47:17.330Z,2.71
2023-01-19T08:49:44.318Z,2.50
2023-01-19T08:52:11.298Z,2.45
2023-01-19T08:54:38.400Z,2.26
2023-01-19T08:57:05.408Z,2.02
2023-01-19T08:59:32.478Z,1.83
2023-01-19T09:01:59.886Z,1.75
2023-01-19T09:04:27.008Z,1.61
2023-01-19T09:06:54.024Z,1.68
2023-01-19T09:09:21.124Z,1.57
2023-01-19T09:11:48.145Z,1.54
2023-01-19T09:14:15.217Z,1.40
2023-01-19T09:16:42.326Z,1.20
2023-01-19T09:19:09.408Z,1.42
2023-01-19T09:21:36.502Z,1.32
2023-01-19T09:24:03.811Z,1.33
2023-01-19T09:26:33.064Z,1.44
2023-01-19T09:29:00.331Z,1.37
2023-01-19T09:31:27.554Z,1.38
2023-01-19T09:33:54.652Z,1.32
2023-01-19T09:36:21.669Z,1.28
2023-01-19T09:38:48.797Z,1.07
2023-01-19T09:41:19.898Z,0.81
2023-01-19T09:43:56.782Z,0.68
2023-01-19T09:46:29.025Z,0.65
2023-01-19T09:48:58.625Z,0.58
2023-01-19T09:51:27.528Z,0.36
2023-01-19T09:53:57.662Z,0.27
2023-01-19T09:56:24.815Z,0.18
2023-01-19T09:58:52.346Z,0.21
2023-01-19T10:01:19.570Z,0.12
2023-01-19T10:03:49.664Z,0.16
2023-01-19T10:06:17.779Z,0.14
2023-01-19T10:08:44.895Z,0.07
2023-01-19T10:11:18.982Z,0.08
2023-01-19T10:13:46.931Z,0.05
2023-01-19T10:16:20.044Z,0.14
2023-01-19T10:18:48.453Z,0.09
2023-01-19T10:21:18.445Z,0.19
2023-01-19T10:23:48.716Z,0.11
2023-01-19T10:26:19.081Z,0.26
2023-01-19T10:28:47.870Z,0.28
2023-01-19T10:31:17.016Z,0.24
2023-01-19T10:33:44.474Z,0.24
2023-01-19T10:36:25.902Z,0.25
2023-01-19T10:38:53.017Z,0.25
2023-01-19T10:41:26.001Z,0.11
2023-01-19T10:43:59.213Z,0.06
2023-01-19T10:46:33.373Z,0.07
2023-01-19T10:49:00.663Z,0.13
2023-01-19T10:51:27.907Z,-0.01
2023-01-19T10:53:57.091Z,0.05
2023-01-19T10:56:26.851Z,0.02
2023-01-19T10:58:53.925Z,-0.07
2023-01-19T11:01:26.087Z,-0.17
2023-01-19T11:03:54.119Z,-0.26
2023-01-19T11:06:22.553Z,-0.37
2023-01-19T11:08:51.819Z,-0.30
2023-01-19T11:11:21.855Z,-0.33
2023-01-19T11:14:09.672Z,-0.32
2023-01-19T11:16:38.683Z,-0.38
2023-01-19T11:19:14.704Z,-0.49
2023-01-19T11:21:41.887Z,-0.50
2023-01-19T11:24:22.390Z,-0.32
2023-01-19T11:27:03.011Z,-0.18
2023-01-19T11:29:30.541Z,-0.18
2023-01-19T11:32:08.917Z,-0.16
2023-01-19T11:34:40.023Z,-0.12
2023-01-19T11:37:16.272Z,-0.10
2023-01-19T11:39:47.909Z,-0.02
2023-01-19T11:42:15.636Z,0.08
2023-01-19T11:45:03.091Z,0.11
2023-01-19T11:47:39.603Z,0.33
2023-01-19T11:50:29.496Z,0.28
2023-01-19T11:53:11.064Z,0.35
2023-01-19T11:55:49.887Z,0.42
2023-01-19T11:58:18.023Z,0.50
2023-01-19T12:01:03.321Z,0.51
2023-01-19T12:03:30.762Z,0.54
2023-01-19T12:06:00.761Z,0.67
2023-01-19T12:08:33.078Z,0.73
2023-01-19T12:11:01.958Z,0.88
2023-01-19T12:13:30.532Z,0.92
2023-01-19T12:16:00.824Z,1.04
2023-01-19T12:18:30.203Z,1.06
2023-01-19T12:20:58.753Z,1.03
2023-01-19T12:23:35.282Z,1.08
2023-01-19T12:26:02.346Z,1.12
2023-01-19T12:28:33.920Z,1.08
2023-01-19T12:31:02.044Z,1.16
2023-01-19T12:33:29.120Z,1.28
2023-01-19T12:35:57.676Z,1.23
2023-01-19T12:38:33.649Z,1.28
2023-01-19T12:41:17.416Z,1.34
2023-01-19T12:43:44.571Z,1.38
2023-01-19T12:46:31.057Z,1.45
2023-01-19T12:49:06.877Z,1.45
2023-01-19T12:51:34.068Z,1.44
2023-01-19T12:54:01.714Z,1.47
2023-01-19T12:56:34.220Z,1.51
2023-01-19T12:59:01.539Z,1.56
2023-01-19T13:01:28.676Z,1.79
2023-01-19T13:03:58.893Z,1.92
2023-01-19T13:06:44.824Z,2.04
2023-01-19T13:09:30.987Z,2.22
2023-01-19T13:12:10.276Z,2.34
2023-01-19T13:14:38.054Z,2.37
2023-01-19T13:17:06.919Z,2.36
2023-01-19T13:19:42.909Z,2.47
2023-01-19T13:22:28.749Z,2.63
2023-01-19T13:25:18.652Z,2.70
2023-01-19T13:27:45.765Z,2.74
2023-01-19T13:30:16.025Z,2.77
2023-01-19T13:32:43.268Z,2.89
2023-01-19T13:35:19.174Z,2.91
2023-01-19T13:37:46.529Z,2.87
2023-01-19T13:40:36.268Z,2.91
2023-01-19T13:43:03.665Z,2.88
2023-01-19T13:45:38.044Z,2.95
2023-01-19T13:48:06.780Z,2.89
2023-01-19T13:50:35.113Z,3.03
2023-01-19T13:53:04.573Z,3.01
2023-01-19T13:55:33.421Z,2.99
2023-01-19T13:58:02.339Z,2.89
2023-01-19T14:00:31.213Z,2.92
2023-01-19T14:03:00.379Z,2.81
2023-01-19T14:05:29.352Z,2.85
2023-01-19T14:08:03.909Z,2.97
2023-01-19T14:10:31.603Z,2.94
2023-01-19T14:13:27.407Z,3.00
2023-01-19T14:15:59.008Z,3.02
2023-01-19T14:18:30.705Z,3.01
2023-01-19T14:21:06.726Z,3.10
2023-01-19T14:23:55.200Z,3.06
2023-01-19T14:26:39.449Z,2.95
2023-01-19T14:29:09.584Z,2.95
2023-01-19T14:31:43.959Z,2.95
2023-01-19T14:34:50.384Z,2.94
2023-01-19T14:37:19.786Z,2.78
2023-01-19T14:40:01.479Z,2.71
2023-01-19T14:42:30.853Z,2.68
2023-01-19T14:45:00.005Z,2.62
2023-01-19T14:47:30.285Z,2.57
2023-01-19T14:50:22.231Z,2.49
2023-01-19T14:52:59.215Z,2.48
2023-01-19T14:55:33.717Z,2.63
2023-01-19T14:58:01.200Z,2.67
2023-01-19T15:00:28.529Z,2.66
2023-01-19T15:02:55.728Z,2.70
2023-01-19T15:05:23.308Z,2.54
2023-01-19T15:07:52.064Z,2.52
2023-01-19T15:10:20.981Z,2.49
2023-01-19T15:12:52.394Z,2.52
2023-01-19T15:15:35.116Z,2.59
2023-01-19T15:18:03.337Z,2.68
2023-01-19T15:20:30.520Z,2.60
2023-01-19T15:22:57.870Z,2.53
2023-01-19T15:25:28.140Z,2.56
2023-01-19T15:27:58.859Z,2.50
2023-01-19T15:30:41.663Z,2.46
2023-01-19T15:33:20.907Z,2.39
2023-01-19T15:35:48.616Z,2.29
2023-01-19T15:38:17.556Z,2.29
2023-01-19T15:40:46.955Z,2.23
2023-01-19T15:43:15.388Z,2.17
2023-01-19T15:45:43.921Z,2.13
2023-01-19T15:48:11.813Z,2.14
2023-01-19T15:50:44.210Z,2.09
2023-01-19T15:53:14.244Z,2.06
2023-01-19T15:55:42.066Z,2.06
2023-01-19T15:58:13.861Z,2.03
2023-01-19T16:00:41.644Z,2.04
2023-01-19T16:03:10.255Z,1.99
2023-01-19T16:05:42.785Z,2.00
2023-01-19T16:08:13.235Z,1.93
2023-01-19T16:10:41.818Z,1.92
2023-01-19T16:13:11.017Z,1.92
2023-01-19T16:15:42.844Z,1.92
2023-01-19T16:18:09.992Z,1.91
2023-01-19T16:20:37.982Z,1.82
2023-01-19T16:23:14.908Z,1.79
2023-01-19T16:25:43.585Z,1.66
2023-01-19T16:28:10.827Z,1.72
2023-01-19T16:30:38.298Z,1.60
2023-01-19T16:33:05.568Z,1.51
2023-01-19T16:35:32.867Z,1.60
2023-01-19T16:38:00.058Z,1.48
2023-01-19T16:40:27.231Z,1.48
2023-01-19T16:42:55.088Z,1.46
2023-01-19T16:45:22.268Z,1.54
2023-01-19T16:47:52.121Z,1.64
2023-01-19T16:50:19.701Z,1.57
2023-01-19T16:52:46.731Z,1.50
2023-01-19T16:55:13.887Z,1.46
2023-01-19T16:57:41.592Z,1.44
2023-01-19T17:00:10.859Z,1.46
2023-01-19T17:02:38.567Z,1.48
2023-01-19T17:05:05.892Z,1.54
2023-01-19T17:07:32.942Z,1.62
2023-01-19T17:10:00.167Z,1.55
2023-01-19T17:12:32.311Z,1.57
2023-01-19T17:15:00.083Z,1.55
2023-01-19T17:17:27.246Z,1.60
2023-01-19T17:19:54.439Z,1.61
2023-01-19T17:22:24.046Z,1.63
2023-01-19T17:24:51.324Z,1.64
2023-01-19T17:27:18.582Z,1.66
2023-01-19T17:29:45.623Z,1.68
2023-01-19T17:32:14.114Z,1.68
2023-01-19T17:34:41.873Z,1.67
2023-01-19T17:37:09.639Z,1.72
2023-01-19T17:39:36.686Z,1.72
2023-01-19T17:42:04.152Z,1.71
2023-01-19T17:44:32.277Z,1.71
2023-01-19T17:47:00.116Z,1.71
2023-01-19T17:49:28.624Z,1.77
2023-01-19T17:51:55.960Z,1.83
2023-01-19T17:54:23.184Z,1.81
2023-01-19T17:56:50.947Z,1.81
2023-01-19T17:59:18.039Z,1.88
2023-01-19T18:01:46.482Z,1.87
2023-01-19T18:04:13.662Z,1.85
2023-01-19T18:06:41.146Z,2.00
2023-01-19T18:09:08.315Z,2.14
2023-01-19T18:11:35.728Z,2.15
2023-01-19T18:14:03.225Z,2.12
2023-01-19T18:16:30.945Z,2.17
2023-01-19T18:18:58.974Z,2.19
2023-01-19T18:21:28.145Z,2.20
2023-01-19T18:24:03.575Z,2.15
2023-01-19T18:26:32.455Z,2.15
2023-01-19T18:29:00.135Z,2.09
2023-01-19T18:31:28.836Z,2.31
2023-01-19T18:33:56.069Z,2.29
2023-01-19T18:36:24.356Z,2.36
2023-01-19T18:39:00.631Z,2.34
2023-01-19T18:41:29.887Z,2.21
2023-01-19T18:47:39.953Z,2.18
2023-01-19T18:50:07.385Z,2.05
2023-01-19T18:52:35.253Z,1.97
2023-01-19T18:55:03.548Z,1.88
2023-01-19T18:57:31.380Z,1.76
2023-01-19T18:59:58.904Z,1.74
2023-01-19T19:02:26.059Z,1.67
2023-01-19T19:04:53.220Z,1.58
2023-01-19T19:07:20.280Z,1.53
2023-01-19T19:09:47.423Z,1.45
2023-01-19T19:12:14.669Z,1.40
2023-01-19T19:14:41.753Z,1.30
2023-01-19T19:17:08.866Z,1.24
2023-01-19T19:19:36.172Z,1.22
2023-01-19T19:22:03.675Z,1.21
2023-01-19T19:24:30.957Z,1.11
2023-01-19T19:26:58.095Z,1.20
2023-01-19T19:29:25.268Z,1.15
2023-01-19T19:31:53.634Z,1.16
2023-01-19T19:34:20.757Z,1.28
2023-01-19T19:36:49.474Z,1.35
2023-01-19T19:39:17.421Z,1.42
2023-01-19T19:41:44.525Z,1.44
2023-01-19T19:44:14.475Z,1.48
2023-01-19T19:46:41.737Z,1.54
2023-01-19T19:49:09.597Z,1.52
2023-01-19T19:51:37.026Z,1.49
2023-01-19T19:54:04.066Z,1.48
2023-01-19T19:56:31.643Z,1.54
2023-01-19T19:58:59.417Z,1.54
2023-01-19T20:01:33.549Z,1.51
2023-01-19T20:04:09.024Z,1.45
2023-01-19T20:06:39.045Z,1.55
2023-01-19T20:09:07.787Z,1.42
2023-01-19T20:11:35.303Z,1.37
2023-01-19T20:14:09.918Z,1.26
2023-01-19T20:16:37.642Z,1.22
2023-01-19T20:19:05.156Z,1.22
2023-01-19T20:21:33.896Z,1.21
2023-01-19T20:24:02.028Z,1.21
2023-01-19T20:26:31.336Z,1.23
2023-01-19T20:29:02.530Z,1.24
2023-01-19T20:31:32.590Z,1.25
2023-01-19T20:34:02.650Z,1.26
2023-01-19T20:36:31.192Z,1.18
2023-01-19T20:38:58.932Z,1.19
2023-01-19T20:41:27.411Z,1.21
2023-01-19T20:44:01.185Z,1.33
2023-01-19T20:46:35.060Z,1.37
2023-01-19T20:49:10.195Z,1.22
2023-01-19T20:51:41.844Z,1.32
2023-01-19T20:54:15.908Z,1.25
2023-01-19T20:56:45.612Z,1.20
2023-01-19T20:59:13.535Z,1.16
2023-01-19T21:01:42.466Z,1.08
2023-01-19T21:04:10.919Z,0.98
2023-01-19T21:06:38.890Z,0.98
2023-01-19T21:09:06.757Z,0.96
2023-01-19T21:11:37.081Z,0.97
2023-01-19T21:14:07.035Z,0.86
2023-01-19T21:16:34.873Z,0.82
2023-01-19T21:19:02.216Z,0.78
2023-01-19T21:21:31.827Z,0.71
2023-01-19T21:24:00.266Z,0.61
2023-01-19T21:26:31.514Z,0.61
2023-01-19T21:28:59.700Z,0.60
2023-01-19T21:31:28.724Z,0.49
2023-01-19T21:33:56.302Z,0.52
2023-01-19T21:36:23.585Z,0.51
2023-01-19T21:38:52.219Z,0.47
2023-01-19T21:41:19.749Z,0.49
2023-01-19T21:43:47.393Z,0.48
2023-01-19T21:46:29.005Z,0.59
2023-01-19T21:49:00.160Z,0.54
2023-01-19T21:51:28.340Z,0.50
2023-01-19T21:53:59.483Z,0.48
2023-01-19T21:56:27.945Z,0.46
2023-01-19T21:58:56.151Z,0.37
2023-01-19T22:01:26.069Z,0.43
2023-01-19T22:03:54.916Z,0.42
2023-01-19T22:06:22.004Z,0.33
2023-01-19T22:08:49.334Z,0.31
2023-01-19T22:11:17.141Z,0.35
2023-01-19T22:13:44.511Z,0.34
2023-01-19T22:16:13.428Z,0.38
2023-01-19T22:18:41.721Z,0.45
2023-01-19T22:21:08.861Z,0.41
2023-01-19T22:23:35.994Z,0.42
2023-01-19T22:26:03.618Z,0.39
2023-01-19T22:28:30.648Z,0.39
2023-01-19T22:31:05.287Z,0.43
2023-01-19T22:33:32.532Z,0.52
2023-01-19T22:36:12.780Z,0.56
2023-01-19T22:38:40.374Z,0.57
2023-01-19T22:41:14.790Z,0.60
2023-01-19T22:43:42.190Z,0.63
2023-01-19T22:46:09.595Z,0.56
2023-01-19T22:48:36.881Z,0.52
2023-01-19T22:51:03.966Z,0.45
2023-01-19T22:53:31.378Z,0.46
2023-01-19T22:55:58.462Z,0.48
2023-01-19T22:58:25.531Z,0.33
2023-01-19T23:00:52.690Z,0.36
2023-01-19T23:03:19.806Z,0.32
2023-01-19T23:05:46.961Z,0.36
2023-01-19T23:08:13.992Z,0.31
2023-01-19T23:10:41.188Z,0.36
2023-01-19T23:13:08.261Z,0.33
2023-01-19T23:15:35.417Z,0.21
2023-01-19T23:18:02.624Z,0.20
2023-01-19T23:20:29.685Z,0.17
2023-01-19T23:22:56.789Z,0.18
2023-01-19T23:25:23.805Z,0.19
2023-01-19T23:27:50.933Z,0.11
2023-01-19T23:30:18.133Z,0.08
2023-01-19T23:32:48.634Z,0.05
2023-01-19T23:35:16.028Z,0.02
2023-01-19T23:37:43.275Z,-0.07
2023-01-19T23:40:11.114Z,-0.11
2023-01-19T23:42:38.212Z,-0.04
2023-01-19T23:45:05.719Z,-0.07
2023-01-19T23:47:34.240Z,-0.15
2023-01-19T23:50:01.899Z,-0.16
2023-01-19T23:52:28.991Z,-0.11
2023-01-19T23:54:56.077Z,-0.21
2023-01-19T23:57:23.180Z,-0.19
2023-01-19T23:59:50.432Z,-0.19
